BAW844 EGLL-EPWA
Flight info
| Callsign | BAW844 |
|---|---|
| Flight time | N/A |
| Altitude | 37000 |
| Route | BPK Q295 MATCH DCT REDFA DCT TACHA DCT GARLU DCT ALUKA DCT EKBUT L619 DENKO P851 BIMPA |
| Aircraft | A320/M-SDE3FGHIKRWXY/S |
Departure
| Time | 2026-05-05 19:45 |
|---|---|
| Airport | London Heathrow Airport (EGLL) |
Arrival
| Time | N/A |
|---|---|
| Airport | Warsaw Chopin Airport (EPWA) |
| Time | Latitude | Longitude | Altitude | Speed | Heading |
|---|---|---|---|---|---|
| 2026-05-05 18:56 | 51.46980 | -0.48043 | 90 ft | 0 kts | 270° |
| 2026-05-05 19:32 | 51.46980 | -0.48041 | 86 ft | 2 kts | 270° |
| 2026-05-05 19:33 | 51.46980 | -0.48001 | 88 ft | 4 kts | 270° |
| 2026-05-05 19:33 | 51.46980 | -0.47957 | 89 ft | 4 kts | 270° |
| 2026-05-05 19:33 | 51.46980 | -0.47914 | 89 ft | 4 kts | 270° |
| 2026-05-05 19:33 | 51.46980 | -0.47899 | 86 ft | 0 kts | 270° |
| 2026-05-05 19:38 | 51.46976 | -0.47914 | 90 ft | 2 kts | 237° |
| 2026-05-05 19:38 | 51.46958 | -0.47917 | 88 ft | 3 kts | 169° |
| 2026-05-05 19:39 | 51.46932 | -0.47894 | 86 ft | 5 kts | 151° |
| 2026-05-05 19:39 | 51.46916 | -0.47880 | 89 ft | 0 kts | 151° |
| 2026-05-05 19:39 | 51.46904 | -0.47872 | 86 ft | 4 kts | 160° |
| 2026-05-05 19:39 | 51.46860 | -0.47867 | 86 ft | 9 kts | 180° |
| 2026-05-05 19:40 | 51.46782 | -0.47867 | 86 ft | 12 kts | 183° |
| 2026-05-05 19:40 | 51.46743 | -0.47977 | 86 ft | 14 kts | 270° |
| 2026-05-05 19:40 | 51.46743 | -0.48029 | 86 ft | 0 kts | 270° |
| 2026-05-05 19:40 | 51.46743 | -0.48041 | 86 ft | 5 kts | 270° |
| 2026-05-05 19:41 | 51.46743 | -0.48043 | 86 ft | 0 kts | 270° |
| 2026-05-05 19:41 | 51.46743 | -0.48050 | 86 ft | 3 kts | 270° |
| 2026-05-05 19:41 | 51.46743 | -0.48124 | 86 ft | 12 kts | 270° |
| 2026-05-05 19:41 | 51.46743 | -0.48301 | 86 ft | 18 kts | 270° |
| 2026-05-05 19:42 | 51.46742 | -0.48513 | 86 ft | 19 kts | 269° |
| 2026-05-05 19:42 | 51.46740 | -0.48682 | 86 ft | 11 kts | 263° |
| 2026-05-05 19:42 | 51.46683 | -0.48748 | 88 ft | 9 kts | 180° |
| 2026-05-05 19:42 | 51.46626 | -0.48754 | 87 ft | 8 kts | 195° |
| 2026-05-05 19:43 | 51.46567 | -0.48784 | 87 ft | 10 kts | 192° |
| 2026-05-05 19:43 | 51.46498 | -0.48756 | 88 ft | 11 kts | 142° |
| 2026-05-05 19:43 | 51.46478 | -0.48639 | 86 ft | 11 kts | 89° |
| 2026-05-05 19:43 | 51.46477 | -0.48554 | 86 ft | 0 kts | 90° |
| 2026-05-05 19:44 | 51.46477 | -0.48538 | 88 ft | 10 kts | 90° |
| 2026-05-05 19:44 | 51.46480 | -0.48022 | 87 ft | 80 kts | 90° |
| 2026-05-05 19:45 | 51.46484 | -0.46830 | 91 ft | 131 kts | 89° |
| 2026-05-05 19:45 | 51.46488 | -0.45127 | 121 ft | 170 kts | 88° |
| 2026-05-05 19:45 | 51.46491 | -0.43207 | 632 ft | 174 kts | 87° |
| 2026-05-05 19:45 | 51.46585 | -0.41268 | 1259 ft | 175 kts | 72° |
| 2026-05-05 19:46 | 51.47091 | -0.39504 | 1843 ft | 177 kts | 52° |
| 2026-05-05 19:46 | 51.47897 | -0.37919 | 2256 ft | 191 kts | 46° |
| 2026-05-05 19:46 | 51.48841 | -0.36253 | 2547 ft | 215 kts | 45° |
| 2026-05-05 19:46 | 51.49921 | -0.34418 | 2946 ft | 237 kts | 45° |
| 2026-05-05 19:47 | 51.51115 | -0.32454 | 3462 ft | 254 kts | 45° |
| 2026-05-05 19:47 | 51.52313 | -0.30343 | 4325 ft | 256 kts | 51° |
| 2026-05-05 19:47 | 51.53211 | -0.27858 | 5190 ft | 260 kts | 65° |
| 2026-05-05 19:47 | 51.53910 | -0.25156 | 6070 ft | 263 kts | 65° |
| 2026-05-05 19:48 | 51.54656 | -0.22433 | 6814 ft | 269 kts | 59° |
| 2026-05-05 19:48 | 51.55847 | -0.20127 | 7569 ft | 270 kts | 38° |
| 2026-05-05 19:48 | 51.57451 | -0.18546 | 8329 ft | 273 kts | 24° |
| 2026-05-05 19:48 | 51.59224 | -0.17386 | 8993 ft | 280 kts | 17° |
| 2026-05-05 19:49 | 51.61150 | -0.16714 | 9656 ft | 286 kts | 9° |
| 2026-05-05 19:49 | 51.62447 | -0.16309 | 10152 ft | 287 kts | 9° |
| 2026-05-05 19:49 | 51.65103 | -0.15385 | 10893 ft | 300 kts | 13° |
| 2026-05-05 19:49 | 51.67144 | -0.14493 | 11219 ft | 317 kts | 16° |
| 2026-05-05 19:50 | 51.69334 | -0.13442 | 11395 ft | 338 kts | 17° |
| 2026-05-05 19:50 | 51.71497 | -0.11832 | 11856 ft | 347 kts | 33° |
| 2026-05-05 19:50 | 51.73359 | -0.09318 | 12468 ft | 352 kts | 47° |
| 2026-05-05 19:50 | 51.74797 | -0.06047 | 13139 ft | 355 kts | 63° |
| 2026-05-05 19:51 | 51.75647 | -0.02296 | 13801 ft | 358 kts | 78° |
| 2026-05-05 19:51 | 51.76016 | 0.01681 | 14423 ft | 360 kts | 82° |
| 2026-05-05 19:51 | 51.76349 | 0.05697 | 14992 ft | 363 kts | 83° |
| 2026-05-05 19:51 | 51.76680 | 0.09750 | 15531 ft | 366 kts | 83° |
| 2026-05-05 19:52 | 51.77006 | 0.13786 | 16058 ft | 369 kts | 84° |
| 2026-05-05 19:52 | 51.77342 | 0.17917 | 16578 ft | 373 kts | 83° |
| 2026-05-05 19:52 | 51.77681 | 0.22089 | 17119 ft | 377 kts | 83° |
| 2026-05-05 19:52 | 51.78120 | 0.26277 | 17655 ft | 381 kts | 76° |
| 2026-05-05 19:53 | 51.78787 | 0.30441 | 18200 ft | 385 kts | 76° |
| 2026-05-05 19:53 | 51.79464 | 0.34649 | 18691 ft | 389 kts | 77° |
| 2026-05-05 19:53 | 51.80146 | 0.38895 | 19210 ft | 392 kts | 77° |
| 2026-05-05 19:53 | 51.80828 | 0.43178 | 19725 ft | 395 kts | 77° |
| 2026-05-05 19:54 | 51.81511 | 0.47505 | 20221 ft | 399 kts | 77° |
| 2026-05-05 19:54 | 51.82199 | 0.51876 | 20694 ft | 404 kts | 77° |
| 2026-05-05 19:54 | 51.82893 | 0.56295 | 21166 ft | 407 kts | 77° |
| 2026-05-05 19:54 | 51.83595 | 0.60741 | 21631 ft | 411 kts | 77° |
| 2026-05-05 19:55 | 51.84302 | 0.65232 | 22091 ft | 414 kts | 77° |
| 2026-05-05 19:55 | 51.85012 | 0.69760 | 22546 ft | 417 kts | 77° |
| 2026-05-05 19:55 | 51.85724 | 0.74320 | 22995 ft | 420 kts | 77° |
| 2026-05-05 19:55 | 51.86441 | 0.78917 | 23428 ft | 423 kts | 78° |
| 2026-05-05 19:56 | 51.87159 | 0.83550 | 23804 ft | 426 kts | 78° |
| 2026-05-05 19:56 | 51.87880 | 0.88218 | 24161 ft | 429 kts | 78° |
| 2026-05-05 19:56 | 51.88606 | 0.92917 | 24507 ft | 432 kts | 78° |
| 2026-05-05 19:56 | 51.89334 | 0.97650 | 24846 ft | 435 kts | 78° |
| 2026-05-05 19:57 | 51.90066 | 1.02419 | 25149 ft | 438 kts | 78° |
| 2026-05-05 19:57 | 51.90552 | 1.05592 | 25356 ft | 440 kts | 78° |
| 2026-05-05 19:57 | 51.91539 | 1.12066 | 25796 ft | 444 kts | 78° |
| 2026-05-05 19:57 | 51.92278 | 1.16924 | 26113 ft | 446 kts | 78° |
| 2026-05-05 19:58 | 51.93022 | 1.21823 | 26425 ft | 449 kts | 78° |
| 2026-05-05 19:58 | 51.93767 | 1.26753 | 26748 ft | 452 kts | 78° |
| 2026-05-05 19:58 | 51.94517 | 1.31713 | 27062 ft | 454 kts | 78° |
| 2026-05-05 19:58 | 51.95266 | 1.36706 | 27377 ft | 457 kts | 78° |
| 2026-05-05 19:59 | 51.96016 | 1.41729 | 27694 ft | 460 kts | 78° |
| 2026-05-05 19:59 | 51.96758 | 1.46715 | 27985 ft | 462 kts | 77° |
| 2026-05-05 19:59 | 51.97513 | 1.51799 | 28265 ft | 465 kts | 77° |
| 2026-05-05 19:59 | 51.98270 | 1.56908 | 28566 ft | 468 kts | 77° |
| 2026-05-05 20:00 | 51.99030 | 1.62048 | 28950 ft | 468 kts | 77° |
| 2026-05-05 20:00 | 51.99787 | 1.67183 | 29364 ft | 468 kts | 77° |
| 2026-05-05 20:00 | 52.00543 | 1.72318 | 29789 ft | 468 kts | 77° |
| 2026-05-05 20:00 | 52.01296 | 1.77455 | 30188 ft | 468 kts | 77° |
| 2026-05-05 20:01 | 52.01987 | 1.82193 | 30552 ft | 467 kts | 77° |
| 2026-05-05 20:01 | 52.02719 | 1.87215 | 30990 ft | 464 kts | 78° |
| 2026-05-05 20:01 | 52.03458 | 1.92301 | 31479 ft | 461 kts | 78° |
| 2026-05-05 20:01 | 52.04186 | 1.97344 | 31988 ft | 457 kts | 78° |
| 2026-05-05 20:02 | 52.04906 | 2.02364 | 32426 ft | 455 kts | 78° |
| 2026-05-05 20:02 | 52.05621 | 2.07364 | 32869 ft | 453 kts | 78° |
| 2026-05-05 20:02 | 52.06331 | 2.12343 | 33322 ft | 451 kts | 78° |
| 2026-05-05 20:02 | 52.07036 | 2.17300 | 33781 ft | 449 kts | 78° |